sensor_id;sensor_type;location;lat;lon;timestamp;P1;durP1;ratioP1;P2;durP2;ratioP2
70997;SDS011;58663;52.040;4.634;2022-10-13T00:01:44;21.98;;;10.70;;
70997;SDS011;58663;52.040;4.634;2022-10-13T00:04:09;16.63;;;10.15;;
70997;SDS011;58663;52.040;4.634;2022-10-13T00:06:34;21.65;;;10.18;;
70997;SDS011;58663;52.040;4.634;2022-10-13T00:09:00;18.50;;;9.85;;
70997;SDS011;58663;52.040;4.634;2022-10-13T00:11:26;19.58;;;11.07;;
70997;SDS011;58663;52.040;4.634;2022-10-13T00:13:56;25.90;;;11.13;;
70997;SDS011;58663;52.040;4.634;2022-10-13T00:16:23;18.85;;;11.23;;
70997;SDS011;58663;52.040;4.634;2022-10-13T00:18:49;24.95;;;10.68;;
70997;SDS011;58663;52.040;4.634;2022-10-13T00:21:16;24.75;;;10.55;;
70997;SDS011;58663;52.040;4.634;2022-10-13T00:23:43;20.27;;;10.45;;
70997;SDS011;58663;52.040;4.634;2022-10-13T00:26:09;20.83;;;10.95;;
70997;SDS011;58663;52.040;4.634;2022-10-13T00:28:37;21.00;;;11.45;;
70997;SDS011;58663;52.040;4.634;2022-10-13T00:31:03;25.02;;;11.40;;
70997;SDS011;58663;52.040;4.634;2022-10-13T00:33:38;24.85;;;11.35;;
70997;SDS011;58663;52.040;4.634;2022-10-13T00:36:04;23.55;;;11.60;;
70997;SDS011;58663;52.040;4.634;2022-10-13T00:38:30;21.58;;;12.70;;
70997;SDS011;58663;52.040;4.634;2022-10-13T00:40:55;25.42;;;12.35;;
70997;SDS011;58663;52.040;4.634;2022-10-13T00:43:22;20.95;;;11.95;;
70997;SDS011;58663;52.040;4.634;2022-10-13T00:45:55;19.10;;;11.35;;
70997;SDS011;58663;52.040;4.634;2022-10-13T00:48:27;24.27;;;12.05;;
70997;SDS011;58663;52.040;4.634;2022-10-13T00:50:53;21.95;;;12.20;;
70997;SDS011;58663;52.040;4.634;2022-10-13T00:53:21;33.40;;;12.38;;
70997;SDS011;58663;52.040;4.634;2022-10-13T00:55:48;19.45;;;12.25;;
70997;SDS011;58663;52.040;4.634;2022-10-13T00:58:14;18.77;;;11.82;;
70997;SDS011;58663;52.040;4.634;2022-10-13T01:00:42;26.98;;;13.27;;
70997;SDS011;58663;52.040;4.634;2022-10-13T01:03:09;26.63;;;12.82;;
70997;SDS011;58663;52.040;4.634;2022-10-13T01:05:35;22.88;;;12.95;;
70997;SDS011;58663;52.040;4.634;2022-10-13T01:08:02;24.05;;;12.77;;
70997;SDS011;58663;52.040;4.634;2022-10-13T01:10:37;23.13;;;11.55;;
70997;SDS011;58663;52.040;4.634;2022-10-13T01:13:14;24.70;;;12.27;;
70997;SDS011;58663;52.040;4.634;2022-10-13T01:15:46;27.33;;;12.55;;
70997;SDS011;58663;52.040;4.634;2022-10-13T01:18:29;25.35;;;12.57;;
70997;SDS011;58663;52.040;4.634;2022-10-13T01:34:58;24.48;;;12.32;;
70997;SDS011;58663;52.040;4.634;2022-10-13T01:37:36;23.88;;;12.43;;
70997;SDS011;58663;52.040;4.634;2022-10-13T01:40:06;22.02;;;11.88;;
70997;SDS011;58663;52.040;4.634;2022-10-13T01:42:35;29.40;;;13.27;;
70997;SDS011;58663;52.040;4.634;2022-10-13T01:45:05;30.95;;;13.90;;
70997;SDS011;58663;52.040;4.634;2022-10-13T01:47:32;23.95;;;13.25;;
70997;SDS011;58663;52.040;4.634;2022-10-13T01:49:58;27.80;;;13.52;;
70997;SDS011;58663;52.040;4.634;2022-10-13T01:52:25;23.25;;;13.73;;
70997;SDS011;58663;52.040;4.634;2022-10-13T01:54:52;27.52;;;14.05;;
70997;SDS011;58663;52.040;4.634;2022-10-13T01:57:37;31.00;;;13.98;;
70997;SDS011;58663;52.040;4.634;2022-10-13T02:00:09;28.05;;;13.98;;
70997;SDS011;58663;52.040;4.634;2022-10-13T02:02:42;28.20;;;13.82;;
70997;SDS011;58663;52.040;4.634;2022-10-13T02:08:08;27.13;;;14.13;;
70997;SDS011;58663;52.040;4.634;2022-10-13T02:13:40;24.75;;;13.57;;
70997;SDS011;58663;52.040;4.634;2022-10-13T02:16:08;27.55;;;14.30;;
70997;SDS011;58663;52.040;4.634;2022-10-13T02:18:34;27.00;;;14.32;;
70997;SDS011;58663;52.040;4.634;2022-10-13T02:21:00;27.38;;;14.82;;
70997;SDS011;58663;52.040;4.634;2022-10-13T02:23:25;24.17;;;14.30;;
70997;SDS011;58663;52.040;4.634;2022-10-13T02:25:51;34.67;;;15.07;;
70997;SDS011;58663;52.040;4.634;2022-10-13T02:28:17;29.05;;;14.73;;
70997;SDS011;58663;52.040;4.634;2022-10-13T02:30:43;24.88;;;14.45;;
70997;SDS011;58663;52.040;4.634;2022-10-13T02:33:09;27.92;;;15.55;;
70997;SDS011;58663;52.040;4.634;2022-10-13T02:35:35;28.40;;;14.65;;
70997;SDS011;58663;52.040;4.634;2022-10-13T02:38:01;27.55;;;15.35;;
70997;SDS011;58663;52.040;4.634;2022-10-13T02:40:26;25.88;;;15.25;;
70997;SDS011;58663;52.040;4.634;2022-10-13T02:42:52;24.35;;;15.15;;
70997;SDS011;58663;52.040;4.634;2022-10-13T02:45:17;32.15;;;16.00;;
70997;SDS011;58663;52.040;4.634;2022-10-13T02:47:43;31.33;;;15.68;;
70997;SDS011;58663;52.040;4.634;2022-10-13T02:50:08;35.03;;;16.77;;
70997;SDS011;58663;52.040;4.634;2022-10-13T02:52:34;31.05;;;15.75;;
70997;SDS011;58663;52.040;4.634;2022-10-13T02:54:59;35.53;;;17.23;;
70997;SDS011;58663;52.040;4.634;2022-10-13T02:57:24;35.13;;;16.35;;
70997;SDS011;58663;52.040;4.634;2022-10-13T02:59:50;33.60;;;16.95;;
70997;SDS011;58663;52.040;4.634;2022-10-13T03:02:15;34.47;;;16.73;;
70997;SDS011;58663;52.040;4.634;2022-10-13T03:04:41;39.35;;;18.58;;
70997;SDS011;58663;52.040;4.634;2022-10-13T03:07:06;32.22;;;16.45;;
70997;SDS011;58663;52.040;4.634;2022-10-13T03:09:32;32.03;;;17.23;;
70997;SDS011;58663;52.040;4.634;2022-10-13T03:11:57;39.60;;;18.77;;
70997;SDS011;58663;52.040;4.634;2022-10-13T03:14:22;34.97;;;16.65;;
70997;SDS011;58663;52.040;4.634;2022-10-13T03:16:48;32.65;;;17.15;;
70997;SDS011;58663;52.040;4.634;2022-10-13T03:19:13;34.42;;;16.63;;
70997;SDS011;58663;52.040;4.634;2022-10-13T03:21:39;37.38;;;17.58;;
70997;SDS011;58663;52.040;4.634;2022-10-13T03:24:05;30.92;;;16.25;;
70997;SDS011;58663;52.040;4.634;2022-10-13T03:26:31;34.15;;;15.68;;
70997;SDS011;58663;52.040;4.634;2022-10-13T03:28:57;34.70;;;15.40;;
70997;SDS011;58663;52.040;4.634;2022-10-13T03:31:22;32.33;;;16.27;;
70997;SDS011;58663;52.040;4.634;2022-10-13T03:33:48;36.85;;;16.23;;
70997;SDS011;58663;52.040;4.634;2022-10-13T03:36:13;33.15;;;15.38;;
70997;SDS011;58663;52.040;4.634;2022-10-13T03:38:38;24.77;;;14.95;;
70997;SDS011;58663;52.040;4.634;2022-10-13T03:41:05;37.75;;;16.05;;
70997;SDS011;58663;52.040;4.634;2022-10-13T03:43:31;36.17;;;16.08;;
70997;SDS011;58663;52.040;4.634;2022-10-13T03:45:57;32.17;;;16.70;;
70997;SDS011;58663;52.040;4.634;2022-10-13T03:48:23;36.10;;;17.15;;
70997;SDS011;58663;52.040;4.634;2022-10-13T03:50:49;36.38;;;17.42;;
70997;SDS011;58663;52.040;4.634;2022-10-13T03:53:14;34.97;;;15.88;;
70997;SDS011;58663;52.040;4.634;2022-10-13T03:55:40;41.58;;;18.08;;
70997;SDS011;58663;52.040;4.634;2022-10-13T03:58:05;38.53;;;16.95;;
70997;SDS011;58663;52.040;4.634;2022-10-13T04:00:31;32.75;;;17.25;;
70997;SDS011;58663;52.040;4.634;2022-10-13T04:02:56;39.47;;;18.15;;
70997;SDS011;58663;52.040;4.634;2022-10-13T04:05:21;39.55;;;18.45;;
70997;SDS011;58663;52.040;4.634;2022-10-13T04:07:47;39.28;;;17.70;;
70997;SDS011;58663;52.040;4.634;2022-10-13T04:10:12;38.58;;;19.13;;
70997;SDS011;58663;52.040;4.634;2022-10-13T04:12:37;35.42;;;18.08;;
70997;SDS011;58663;52.040;4.634;2022-10-13T04:15:03;43.55;;;18.13;;
70997;SDS011;58663;52.040;4.634;2022-10-13T04:17:28;43.10;;;17.33;;
70997;SDS011;58663;52.040;4.634;2022-10-13T04:19:53;41.67;;;17.52;;
70997;SDS011;58663;52.040;4.634;2022-10-13T04:22:19;47.17;;;19.33;;
70997;SDS011;58663;52.040;4.634;2022-10-13T04:24:44;34.33;;;17.70;;
70997;SDS011;58663;52.040;4.634;2022-10-13T04:27:09;43.20;;;18.02;;
70997;SDS011;58663;52.040;4.634;2022-10-13T04:29:35;39.50;;;17.83;;
70997;SDS011;58663;52.040;4.634;2022-10-13T04:32:00;43.08;;;19.25;;
70997;SDS011;58663;52.040;4.634;2022-10-13T04:34:25;44.80;;;18.30;;
70997;SDS011;58663;52.040;4.634;2022-10-13T04:36:51;36.60;;;18.67;;
70997;SDS011;58663;52.040;4.634;2022-10-13T04:39:16;41.65;;;17.20;;
70997;SDS011;58663;52.040;4.634;2022-10-13T04:41:42;37.95;;;17.58;;
70997;SDS011;58663;52.040;4.634;2022-10-13T04:44:08;34.13;;;16.95;;
70997;SDS011;58663;52.040;4.634;2022-10-13T04:46:33;43.72;;;18.25;;
70997;SDS011;58663;52.040;4.634;2022-10-13T04:48:58;41.55;;;16.98;;
70997;SDS011;58663;52.040;4.634;2022-10-13T04:51:24;36.22;;;17.10;;
70997;SDS011;58663;52.040;4.634;2022-10-13T04:53:56;42.42;;;17.15;;
70997;SDS011;58663;52.040;4.634;2022-10-13T04:56:23;38.28;;;18.58;;
70997;SDS011;58663;52.040;4.634;2022-10-13T04:58:49;37.15;;;17.80;;
70997;SDS011;58663;52.040;4.634;2022-10-13T05:01:16;46.08;;;17.27;;
70997;SDS011;58663;52.040;4.634;2022-10-13T05:03:43;40.72;;;18.48;;
70997;SDS011;58663;52.040;4.634;2022-10-13T05:06:12;42.65;;;18.20;;
70997;SDS011;58663;52.040;4.634;2022-10-13T05:08:42;41.95;;;18.08;;
70997;SDS011;58663;52.040;4.634;2022-10-13T05:11:07;42.67;;;18.30;;
70997;SDS011;58663;52.040;4.634;2022-10-13T05:13:33;43.92;;;18.40;;
70997;SDS011;58663;52.040;4.634;2022-10-13T05:15:58;39.95;;;18.17;;
70997;SDS011;58663;52.040;4.634;2022-10-13T05:18:23;40.55;;;18.10;;
70997;SDS011;58663;52.040;4.634;2022-10-13T05:20:49;42.38;;;17.92;;
70997;SDS011;58663;52.040;4.634;2022-10-13T05:23:14;42.33;;;18.23;;
70997;SDS011;58663;52.040;4.634;2022-10-13T05:25:40;39.65;;;17.50;;
70997;SDS011;58663;52.040;4.634;2022-10-13T05:28:06;49.95;;;17.92;;
70997;SDS011;58663;52.040;4.634;2022-10-13T05:30:32;49.38;;;18.65;;
70997;SDS011;58663;52.040;4.634;2022-10-13T05:32:58;44.28;;;17.85;;
70997;SDS011;58663;52.040;4.634;2022-10-13T05:35:24;45.72;;;16.52;;
70997;SDS011;58663;52.040;4.634;2022-10-13T05:37:49;47.58;;;19.45;;
70997;SDS011;58663;52.040;4.634;2022-10-13T05:40:15;36.55;;;17.10;;
70997;SDS011;58663;52.040;4.634;2022-10-13T05:42:40;45.28;;;17.92;;
70997;SDS011;58663;52.040;4.634;2022-10-13T05:45:07;44.10;;;17.55;;
70997;SDS011;58663;52.040;4.634;2022-10-13T05:47:33;43.85;;;17.58;;
70997;SDS011;58663;52.040;4.634;2022-10-13T05:49:58;47.13;;;17.67;;
70997;SDS011;58663;52.040;4.634;2022-10-13T05:52:24;43.00;;;16.50;;
70997;SDS011;58663;52.040;4.634;2022-10-13T05:54:53;37.35;;;16.63;;
70997;SDS011;58663;52.040;4.634;2022-10-13T05:57:32;41.30;;;16.90;;
70997;SDS011;58663;52.040;4.634;2022-10-13T06:00:02;39.53;;;17.27;;
70997;SDS011;58663;52.040;4.634;2022-10-13T06:02:43;35.95;;;14.90;;
70997;SDS011;58663;52.040;4.634;2022-10-13T06:05:13;28.90;;;15.25;;
70997;SDS011;58663;52.040;4.634;2022-10-13T06:07:40;33.97;;;15.20;;
70997;SDS011;58663;52.040;4.634;2022-10-13T06:10:07;33.33;;;16.38;;
70997;SDS011;58663;52.040;4.634;2022-10-13T06:12:32;38.65;;;15.98;;
70997;SDS011;58663;52.040;4.634;2022-10-13T06:14:58;37.80;;;16.95;;
70997;SDS011;58663;52.040;4.634;2022-10-13T06:17:23;38.17;;;16.83;;
70997;SDS011;58663;52.040;4.634;2022-10-13T06:19:48;45.13;;;17.00;;
70997;SDS011;58663;52.040;4.634;2022-10-13T06:22:14;39.58;;;16.23;;
70997;SDS011;58663;52.040;4.634;2022-10-13T06:24:39;38.45;;;17.23;;
70997;SDS011;58663;52.040;4.634;2022-10-13T06:27:04;41.40;;;17.02;;
70997;SDS011;58663;52.040;4.634;2022-10-13T06:29:30;43.45;;;19.45;;
70997;SDS011;58663;52.040;4.634;2022-10-13T06:31:57;47.03;;;18.00;;
70997;SDS011;58663;52.040;4.634;2022-10-13T06:34:22;43.30;;;18.05;;
70997;SDS011;58663;52.040;4.634;2022-10-13T06:36:47;45.08;;;18.40;;
70997;SDS011;58663;52.040;4.634;2022-10-13T06:39:13;45.47;;;19.55;;
70997;SDS011;58663;52.040;4.634;2022-10-13T06:41:38;52.78;;;20.30;;
70997;SDS011;58663;52.040;4.634;2022-10-13T06:44:03;57.15;;;22.20;;
70997;SDS011;58663;52.040;4.634;2022-10-13T06:46:29;57.47;;;21.67;;
70997;SDS011;58663;52.040;4.634;2022-10-13T06:48:55;52.72;;;20.80;;
70997;SDS011;58663;52.040;4.634;2022-10-13T06:51:20;52.08;;;21.77;;
70997;SDS011;58663;52.040;4.634;2022-10-13T06:53:45;56.90;;;22.00;;
70997;SDS011;58663;52.040;4.634;2022-10-13T06:56:11;49.60;;;21.02;;
70997;SDS011;58663;52.040;4.634;2022-10-13T06:58:36;51.63;;;22.42;;
70997;SDS011;58663;52.040;4.634;2022-10-13T07:01:02;59.53;;;22.92;;
70997;SDS011;58663;52.040;4.634;2022-10-13T07:03:28;58.95;;;22.42;;
70997;SDS011;58663;52.040;4.634;2022-10-13T07:05:53;62.10;;;23.55;;
70997;SDS011;58663;52.040;4.634;2022-10-13T07:08:19;62.97;;;24.33;;
70997;SDS011;58663;52.040;4.634;2022-10-13T07:10:45;54.70;;;23.05;;
70997;SDS011;58663;52.040;4.634;2022-10-13T07:13:10;57.00;;;23.27;;
70997;SDS011;58663;52.040;4.634;2022-10-13T07:15:36;60.75;;;25.00;;
70997;SDS011;58663;52.040;4.634;2022-10-13T07:18:03;61.63;;;25.85;;
70997;SDS011;58663;52.040;4.634;2022-10-13T07:20:28;65.63;;;26.48;;
70997;SDS011;58663;52.040;4.634;2022-10-13T07:22:53;55.38;;;24.98;;
70997;SDS011;58663;52.040;4.634;2022-10-13T07:25:18;57.03;;;25.40;;
70997;SDS011;58663;52.040;4.634;2022-10-13T07:27:44;57.97;;;25.95;;
70997;SDS011;58663;52.040;4.634;2022-10-13T07:30:10;62.10;;;25.88;;
70997;SDS011;58663;52.040;4.634;2022-10-13T07:32:36;58.05;;;25.20;;
70997;SDS011;58663;52.040;4.634;2022-10-13T07:35:03;48.63;;;24.13;;
70997;SDS011;58663;52.040;4.634;2022-10-13T07:37:29;54.47;;;22.98;;
70997;SDS011;58663;52.040;4.634;2022-10-13T07:39:54;44.42;;;22.25;;
70997;SDS011;58663;52.040;4.634;2022-10-13T07:42:19;44.92;;;24.00;;
70997;SDS011;58663;52.040;4.634;2022-10-13T07:44:45;47.38;;;22.42;;
70997;SDS011;58663;52.040;4.634;2022-10-13T07:47:10;45.15;;;22.58;;
70997;SDS011;58663;52.040;4.634;2022-10-13T07:49:35;50.22;;;22.52;;
70997;SDS011;58663;52.040;4.634;2022-10-13T07:52:01;42.97;;;21.83;;
70997;SDS011;58663;52.040;4.634;2022-10-13T07:54:26;50.53;;;23.40;;
70997;SDS011;58663;52.040;4.634;2022-10-13T07:56:52;46.40;;;20.88;;
70997;SDS011;58663;52.040;4.634;2022-10-13T07:59:18;37.35;;;20.40;;
70997;SDS011;58663;52.040;4.634;2022-10-13T08:01:43;34.28;;;17.95;;
70997;SDS011;58663;52.040;4.634;2022-10-13T08:04:09;33.70;;;16.95;;
70997;SDS011;58663;52.040;4.634;2022-10-13T08:06:34;29.77;;;16.45;;
70997;SDS011;58663;52.040;4.634;2022-10-13T08:08:59;32.00;;;17.27;;
70997;SDS011;58663;52.040;4.634;2022-10-13T08:11:25;30.35;;;15.73;;
70997;SDS011;58663;52.040;4.634;2022-10-13T08:13:51;27.63;;;16.02;;
70997;SDS011;58663;52.040;4.634;2022-10-13T08:16:17;33.58;;;17.08;;
70997;SDS011;58663;52.040;4.634;2022-10-13T08:18:42;35.75;;;16.88;;
70997;SDS011;58663;52.040;4.634;2022-10-13T08:21:08;27.50;;;15.45;;
70997;SDS011;58663;52.040;4.634;2022-10-13T08:23:37;31.20;;;16.60;;
70997;SDS011;58663;52.040;4.634;2022-10-13T08:26:03;28.23;;;16.15;;
70997;SDS011;58663;52.040;4.634;2022-10-13T08:28:28;31.13;;;17.15;;
70997;SDS011;58663;52.040;4.634;2022-10-13T08:30:55;35.88;;;16.98;;
70997;SDS011;58663;52.040;4.634;2022-10-13T08:33:23;31.58;;;16.63;;
70997;SDS011;58663;52.040;4.634;2022-10-13T08:35:50;35.20;;;16.48;;
70997;SDS011;58663;52.040;4.634;2022-10-13T08:38:16;32.38;;;16.02;;
70997;SDS011;58663;52.040;4.634;2022-10-13T08:40:45;28.15;;;15.20;;
70997;SDS011;58663;52.040;4.634;2022-10-13T08:43:12;25.42;;;15.55;;
70997;SDS011;58663;52.040;4.634;2022-10-13T08:45:40;23.15;;;14.75;;
70997;SDS011;58663;52.040;4.634;2022-10-13T08:48:08;25.98;;;15.32;;
70997;SDS011;58663;52.040;4.634;2022-10-13T08:50:56;24.23;;;15.43;;
70997;SDS011;58663;52.040;4.634;2022-10-13T08:53:35;27.00;;;14.82;;
70997;SDS011;58663;52.040;4.634;2022-10-13T08:58:31;25.20;;;13.75;;
70997;SDS011;58663;52.040;4.634;2022-10-13T09:01:05;26.45;;;14.18;;
70997;SDS011;58663;52.040;4.634;2022-10-13T09:06:19;27.08;;;14.98;;
70997;SDS011;58663;52.040;4.634;2022-10-13T09:08:52;22.15;;;13.75;;
70997;SDS011;58663;52.040;4.634;2022-10-13T09:11:33;23.92;;;13.75;;
70997;SDS011;58663;52.040;4.634;2022-10-13T09:14:05;30.30;;;15.32;;
70997;SDS011;58663;52.040;4.634;2022-10-13T09:16:33;29.05;;;16.23;;
70997;SDS011;58663;52.040;4.634;2022-10-13T09:27:45;29.88;;;15.10;;
70997;SDS011;58663;52.040;4.634;2022-10-13T09:30:24;25.80;;;15.10;;
70997;SDS011;58663;52.040;4.634;2022-10-13T09:38:21;30.73;;;15.60;;
70997;SDS011;58663;52.040;4.634;2022-10-13T09:41:02;23.85;;;14.45;;
70997;SDS011;58663;52.040;4.634;2022-10-13T09:43:31;27.85;;;15.95;;
70997;SDS011;58663;52.040;4.634;2022-10-13T09:45:57;27.88;;;16.38;;
70997;SDS011;58663;52.040;4.634;2022-10-13T09:48:24;22.92;;;15.68;;
70997;SDS011;58663;52.040;4.634;2022-10-13T09:50:52;24.05;;;16.17;;
70997;SDS011;58663;52.040;4.634;2022-10-13T09:56:08;27.30;;;14.88;;
70997;SDS011;58663;52.040;4.634;2022-10-13T10:01:33;27.60;;;13.43;;
70997;SDS011;58663;52.040;4.634;2022-10-13T10:04:00;20.13;;;12.82;;
70997;SDS011;58663;52.040;4.634;2022-10-13T10:06:28;19.80;;;14.00;;
70997;SDS011;58663;52.040;4.634;2022-10-13T10:08:57;18.10;;;11.70;;
70997;SDS011;58663;52.040;4.634;2022-10-13T10:13:56;20.48;;;12.35;;
70997;SDS011;58663;52.040;4.634;2022-10-13T10:16:29;17.48;;;11.10;;
70997;SDS011;58663;52.040;4.634;2022-10-13T10:19:03;21.85;;;11.30;;
70997;SDS011;58663;52.040;4.634;2022-10-13T10:24:33;16.92;;;11.05;;
70997;SDS011;58663;52.040;4.634;2022-10-13T10:27:38;16.25;;;10.60;;
70997;SDS011;58663;52.040;4.634;2022-10-13T10:30:15;18.80;;;10.07;;
70997;SDS011;58663;52.040;4.634;2022-10-13T10:32:44;20.75;;;10.27;;
70997;SDS011;58663;52.040;4.634;2022-10-13T10:35:39;17.48;;;9.88;;
70997;SDS011;58663;52.040;4.634;2022-10-13T10:41:11;19.35;;;10.38;;
70997;SDS011;58663;52.040;4.634;2022-10-13T10:46:26;23.35;;;10.43;;
70997;SDS011;58663;52.040;4.634;2022-10-13T10:48:54;16.33;;;9.98;;
70997;SDS011;58663;52.040;4.634;2022-10-13T10:51:24;15.75;;;9.50;;
70997;SDS011;58663;52.040;4.634;2022-10-13T10:54:04;22.55;;;9.65;;
70997;SDS011;58663;52.040;4.634;2022-10-13T10:56:41;18.13;;;10.57;;
70997;SDS011;58663;52.040;4.634;2022-10-13T10:59:19;18.48;;;9.52;;
70997;SDS011;58663;52.040;4.634;2022-10-13T11:04:40;16.17;;;9.45;;
70997;SDS011;58663;52.040;4.634;2022-10-13T11:14:44;14.98;;;8.88;;
70997;SDS011;58663;52.040;4.634;2022-10-13T11:19:56;18.40;;;9.93;;
70997;SDS011;58663;52.040;4.634;2022-10-13T11:22:25;21.25;;;9.73;;
70997;SDS011;58663;52.040;4.634;2022-10-13T11:24:52;19.48;;;8.95;;
70997;SDS011;58663;52.040;4.634;2022-10-13T11:29:51;17.60;;;9.43;;
70997;SDS011;58663;52.040;4.634;2022-10-13T11:40:29;16.85;;;8.20;;
70997;SDS011;58663;52.040;4.634;2022-10-13T11:51:29;20.55;;;10.55;;
70997;SDS011;58663;52.040;4.634;2022-10-13T11:59:21;20.33;;;10.57;;
70997;SDS011;58663;52.040;4.634;2022-10-13T12:02:11;14.38;;;9.40;;
70997;SDS011;58663;52.040;4.634;2022-10-13T12:04:37;16.50;;;9.80;;
70997;SDS011;58663;52.040;4.634;2022-10-13T12:07:04;18.73;;;9.60;;
70997;SDS011;58663;52.040;4.634;2022-10-13T12:09:31;27.30;;;11.60;;
70997;SDS011;58663;52.040;4.634;2022-10-13T12:12:02;20.33;;;9.20;;
70997;SDS011;58663;52.040;4.634;2022-10-13T12:14:36;20.65;;;10.40;;
70997;SDS011;58663;52.040;4.634;2022-10-13T12:17:17;18.98;;;9.70;;
70997;SDS011;58663;52.040;4.634;2022-10-13T12:19:43;25.40;;;10.70;;
70997;SDS011;58663;52.040;4.634;2022-10-13T12:22:12;25.95;;;12.57;;
70997;SDS011;58663;52.040;4.634;2022-10-13T12:24:37;19.88;;;12.25;;
70997;SDS011;58663;52.040;4.634;2022-10-13T12:27:10;15.55;;;11.88;;
70997;SDS011;58663;52.040;4.634;2022-10-13T12:29:41;23.38;;;12.43;;
70997;SDS011;58663;52.040;4.634;2022-10-13T12:32:17;14.88;;;11.23;;
70997;SDS011;58663;52.040;4.634;2022-10-13T12:34:46;17.88;;;11.93;;
70997;SDS011;58663;52.040;4.634;2022-10-13T12:37:20;19.83;;;11.35;;
70997;SDS011;58663;52.040;4.634;2022-10-13T12:39:51;20.77;;;12.13;;
70997;SDS011;58663;52.040;4.634;2022-10-13T12:42:17;23.33;;;13.52;;
70997;SDS011;58663;52.040;4.634;2022-10-13T12:44:43;24.63;;;12.43;;
70997;SDS011;58663;52.040;4.634;2022-10-13T12:53:13;24.33;;;14.27;;
70997;SDS011;58663;52.040;4.634;2022-10-13T12:55:49;17.85;;;11.85;;
70997;SDS011;58663;52.040;4.634;2022-10-13T12:58:18;19.55;;;11.82;;
70997;SDS011;58663;52.040;4.634;2022-10-13T13:00:53;15.82;;;11.63;;
70997;SDS011;58663;52.040;4.634;2022-10-13T13:03:24;18.27;;;11.63;;
70997;SDS011;58663;52.040;4.634;2022-10-13T13:06:05;18.45;;;12.55;;
70997;SDS011;58663;52.040;4.634;2022-10-13T13:11:42;21.45;;;13.27;;
70997;SDS011;58663;52.040;4.634;2022-10-13T13:17:03;19.70;;;12.73;;
70997;SDS011;58663;52.040;4.634;2022-10-13T13:19:33;21.23;;;13.90;;
70997;SDS011;58663;52.040;4.634;2022-10-13T13:21:59;19.17;;;12.90;;
70997;SDS011;58663;52.040;4.634;2022-10-13T13:24:25;20.27;;;13.13;;
70997;SDS011;58663;52.040;4.634;2022-10-13T13:26:50;22.88;;;14.43;;
70997;SDS011;58663;52.040;4.634;2022-10-13T13:29:15;22.27;;;13.40;;
70997;SDS011;58663;52.040;4.634;2022-10-13T13:31:41;21.08;;;13.60;;
70997;SDS011;58663;52.040;4.634;2022-10-13T13:34:06;21.00;;;13.65;;
70997;SDS011;58663;52.040;4.634;2022-10-13T13:36:31;24.42;;;14.00;;
70997;SDS011;58663;52.040;4.634;2022-10-13T13:38:57;25.10;;;13.32;;
70997;SDS011;58663;52.040;4.634;2022-10-13T13:41:22;23.38;;;13.25;;
70997;SDS011;58663;52.040;4.634;2022-10-13T13:43:51;26.70;;;14.68;;
70997;SDS011;58663;52.040;4.634;2022-10-13T13:46:18;19.80;;;13.95;;
70997;SDS011;58663;52.040;4.634;2022-10-13T13:48:45;23.25;;;14.05;;
70997;SDS011;58663;52.040;4.634;2022-10-13T13:51:11;19.42;;;13.35;;
70997;SDS011;58663;52.040;4.634;2022-10-13T13:53:36;21.58;;;13.35;;
70997;SDS011;58663;52.040;4.634;2022-10-13T13:56:02;20.77;;;13.10;;
70997;SDS011;58663;52.040;4.634;2022-10-13T13:58:28;20.73;;;13.68;;
70997;SDS011;58663;52.040;4.634;2022-10-13T14:00:53;16.92;;;12.07;;
70997;SDS011;58663;52.040;4.634;2022-10-13T14:03:18;10.80;;;7.03;;
70997;SDS011;58663;52.040;4.634;2022-10-13T14:05:44;4.32;;;3.40;;
70997;SDS011;58663;52.040;4.634;2022-10-13T14:08:09;5.60;;;3.42;;
70997;SDS011;58663;52.040;4.634;2022-10-13T14:10:34;4.65;;;3.50;;
70997;SDS011;58663;52.040;4.634;2022-10-13T14:13:03;4.65;;;3.53;;
70997;SDS011;58663;52.040;4.634;2022-10-13T14:15:28;8.38;;;5.03;;
70997;SDS011;58663;52.040;4.634;2022-10-13T14:17:53;12.20;;;5.43;;
70997;SDS011;58663;52.040;4.634;2022-10-13T14:20:19;11.90;;;7.18;;
70997;SDS011;58663;52.040;4.634;2022-10-13T14:22:45;6.72;;;4.90;;
70997;SDS011;58663;52.040;4.634;2022-10-13T14:25:11;6.85;;;4.63;;
70997;SDS011;58663;52.040;4.634;2022-10-13T14:27:36;7.78;;;5.32;;
70997;SDS011;58663;52.040;4.634;2022-10-13T14:30:05;4.38;;;3.22;;
70997;SDS011;58663;52.040;4.634;2022-10-13T14:32:31;6.18;;;2.80;;
70997;SDS011;58663;52.040;4.634;2022-10-13T14:34:56;3.85;;;3.05;;
70997;SDS011;58663;52.040;4.634;2022-10-13T14:37:22;4.65;;;3.28;;
70997;SDS011;58663;52.040;4.634;2022-10-13T14:39:47;3.97;;;3.15;;
70997;SDS011;58663;52.040;4.634;2022-10-13T14:42:13;3.85;;;2.80;;
70997;SDS011;58663;52.040;4.634;2022-10-13T14:44:38;5.25;;;3.65;;
70997;SDS011;58663;52.040;4.634;2022-10-13T14:47:03;7.30;;;3.83;;
70997;SDS011;58663;52.040;4.634;2022-10-13T14:49:28;5.20;;;3.28;;
70997;SDS011;58663;52.040;4.634;2022-10-13T14:51:54;6.05;;;3.08;;
70997;SDS011;58663;52.040;4.634;2022-10-13T14:54:19;4.50;;;2.45;;
70997;SDS011;58663;52.040;4.634;2022-10-13T14:56:44;4.13;;;2.05;;
70997;SDS011;58663;52.040;4.634;2022-10-13T14:59:10;3.72;;;1.75;;
70997;SDS011;58663;52.040;4.634;2022-10-13T15:01:36;3.60;;;1.60;;
70997;SDS011;58663;52.040;4.634;2022-10-13T15:04:02;2.95;;;1.60;;
70997;SDS011;58663;52.040;4.634;2022-10-13T15:06:28;2.90;;;1.70;;
70997;SDS011;58663;52.040;4.634;2022-10-13T15:08:54;5.05;;;1.92;;
70997;SDS011;58663;52.040;4.634;2022-10-13T15:11:21;4.07;;;1.83;;
70997;SDS011;58663;52.040;4.634;2022-10-13T15:13:46;2.03;;;1.70;;
70997;SDS011;58663;52.040;4.634;2022-10-13T15:16:14;2.83;;;1.60;;
70997;SDS011;58663;52.040;4.634;2022-10-13T15:18:41;5.18;;;2.30;;
70997;SDS011;58663;52.040;4.634;2022-10-13T15:21:06;2.80;;;2.10;;
70997;SDS011;58663;52.040;4.634;2022-10-13T15:23:31;3.00;;;2.00;;
70997;SDS011;58663;52.040;4.634;2022-10-13T15:25:58;4.05;;;2.45;;
70997;SDS011;58663;52.040;4.634;2022-10-13T15:28:25;6.57;;;2.60;;
70997;SDS011;58663;52.040;4.634;2022-10-13T15:30:52;4.65;;;3.10;;
70997;SDS011;58663;52.040;4.634;2022-10-13T15:33:17;6.32;;;3.92;;
70997;SDS011;58663;52.040;4.634;2022-10-13T15:35:46;3.42;;;3.13;;
70997;SDS011;58663;52.040;4.634;2022-10-13T15:38:12;4.03;;;3.42;;
70997;SDS011;58663;52.040;4.634;2022-10-13T15:40:38;5.10;;;3.95;;
70997;SDS011;58663;52.040;4.634;2022-10-13T15:43:04;5.35;;;4.10;;
70997;SDS011;58663;52.040;4.634;2022-10-13T15:45:30;4.20;;;3.40;;
70997;SDS011;58663;52.040;4.634;2022-10-13T15:47:55;3.17;;;2.78;;
70997;SDS011;58663;52.040;4.634;2022-10-13T15:50:21;6.22;;;3.63;;
70997;SDS011;58663;52.040;4.634;2022-10-13T15:52:47;3.58;;;3.08;;
70997;SDS011;58663;52.040;4.634;2022-10-13T15:55:13;5.97;;;3.42;;
70997;SDS011;58663;52.040;4.634;2022-10-13T15:57:38;4.25;;;3.30;;
70997;SDS011;58663;52.040;4.634;2022-10-13T16:00:04;5.03;;;3.42;;
70997;SDS011;58663;52.040;4.634;2022-10-13T16:02:30;5.30;;;3.90;;
70997;SDS011;58663;52.040;4.634;2022-10-13T16:04:56;5.72;;;4.28;;
70997;SDS011;58663;52.040;4.634;2022-10-13T16:07:22;6.65;;;4.90;;
70997;SDS011;58663;52.040;4.634;2022-10-13T16:09:48;6.05;;;5.45;;
70997;SDS011;58663;52.040;4.634;2022-10-13T16:12:13;5.93;;;5.32;;
70997;SDS011;58663;52.040;4.634;2022-10-13T16:14:38;5.20;;;4.70;;